createdAt,value
2022-08-24T00:01:58.729Z,16.00
2022-08-24T00:04:28.317Z,15.90
2022-08-24T00:07:01.329Z,15.90
2022-08-24T00:09:29.924Z,15.90
2022-08-24T00:11:58.742Z,15.90
2022-08-24T00:14:28.748Z,15.90
2022-08-24T00:16:57.800Z,15.80
2022-08-24T00:19:26.683Z,15.80
2022-08-24T00:21:55.270Z,15.80
2022-08-24T00:24:23.614Z,15.80
2022-08-24T00:26:52.909Z,15.70
2022-08-24T00:29:22.226Z,15.70
2022-08-24T00:31:52.225Z,15.70
2022-08-24T00:34:20.854Z,15.70
2022-08-24T00:36:49.098Z,15.70
2022-08-24T00:39:17.584Z,15.70
2022-08-24T00:41:48.461Z,15.70
2022-08-24T00:44:17.687Z,15.70
2022-08-24T00:46:52.897Z,15.60
2022-08-24T00:49:26.887Z,15.60
2022-08-24T00:52:03.915Z,15.60
2022-08-24T00:54:35.078Z,15.60
2022-08-24T00:57:07.625Z,15.50
2022-08-24T00:59:40.932Z,15.50
2022-08-24T01:02:16.130Z,15.50
2022-08-24T01:04:50.245Z,15.40
2022-08-24T01:07:18.601Z,15.40
2022-08-24T01:09:47.089Z,15.40
2022-08-24T01:12:16.716Z,15.40
2022-08-24T01:14:46.005Z,15.30
2022-08-24T01:17:38.836Z,15.30
2022-08-24T01:20:10.195Z,15.20
2022-08-24T01:22:51.636Z,15.30
2022-08-24T01:25:21.861Z,15.20
2022-08-24T01:27:52.747Z,15.20
2022-08-24T01:30:21.528Z,15.20
2022-08-24T01:32:57.672Z,15.20
2022-08-24T01:35:26.480Z,15.20
2022-08-24T01:37:56.957Z,15.20
2022-08-24T01:40:32.824Z,15.20
2022-08-24T01:43:01.327Z,15.20
2022-08-24T01:45:30.441Z,15.10
2022-08-24T01:47:59.633Z,15.10
2022-08-24T01:50:29.353Z,15.10
2022-08-24T01:53:05.427Z,15.00
2022-08-24T01:55:36.605Z,15.00
2022-08-24T01:58:06.148Z,15.00
2022-08-24T02:00:36.594Z,15.00
2022-08-24T02:03:06.285Z,14.90
2022-08-24T02:05:35.300Z,14.90
2022-08-24T02:08:04.444Z,14.90
2022-08-24T02:10:32.933Z,14.80
2022-08-24T02:13:04.870Z,14.80
2022-08-24T02:15:36.489Z,14.80
2022-08-24T02:18:05.316Z,14.80
2022-08-24T02:20:34.110Z,14.70
2022-08-24T02:23:02.619Z,14.70
2022-08-24T02:25:32.000Z,14.70
2022-08-24T02:28:00.918Z,14.70
2022-08-24T02:30:32.173Z,14.70
2022-08-24T02:33:01.687Z,14.70
2022-08-24T02:35:31.543Z,14.70
2022-08-24T02:38:00.249Z,14.60
2022-08-24T02:40:30.595Z,14.60
2022-08-24T02:42:59.355Z,14.60
2022-08-24T02:45:27.784Z,14.60
2022-08-24T02:47:57.661Z,14.60
2022-08-24T02:50:26.646Z,14.60
2022-08-24T02:52:55.427Z,14.60
2022-08-24T02:55:25.964Z,14.60
2022-08-24T02:57:54.260Z,14.60
2022-08-24T03:00:23.862Z,14.50
2022-08-24T03:02:52.569Z,14.50
2022-08-24T03:05:24.165Z,14.50
2022-08-24T03:07:52.885Z,14.50
2022-08-24T03:10:22.518Z,14.60
2022-08-24T03:12:51.163Z,14.60
2022-08-24T03:15:22.910Z,14.70
2022-08-24T03:17:52.796Z,14.80
2022-08-24T03:20:26.344Z,14.80
2022-08-24T03:22:54.662Z,14.90
2022-08-24T03:25:26.748Z,15.00
2022-08-24T03:27:55.631Z,15.00
2022-08-24T03:30:24.942Z,15.00
2022-08-24T03:32:53.698Z,15.10
2022-08-24T03:35:22.998Z,15.10
2022-08-24T03:37:54.415Z,15.10
2022-08-24T03:40:24.601Z,15.10
2022-08-24T03:42:56.835Z,15.20
2022-08-24T03:45:25.336Z,15.20
2022-08-24T03:47:54.522Z,15.20
2022-08-24T03:50:23.981Z,15.30
2022-08-24T03:52:54.066Z,15.20
2022-08-24T03:55:22.657Z,15.30
2022-08-24T03:57:50.893Z,15.30
2022-08-24T04:00:19.704Z,15.30
2022-08-24T04:02:56.836Z,15.40
2022-08-24T04:05:27.338Z,15.30
2022-08-24T04:07:57.039Z,15.40
2022-08-24T04:10:25.724Z,15.40
2022-08-24T04:12:54.922Z,15.40
2022-08-24T04:15:25.267Z,15.40
2022-08-24T04:17:53.540Z,15.50
2022-08-24T04:20:22.887Z,15.50
2022-08-24T04:22:53.510Z,15.50
2022-08-24T04:25:25.279Z,15.60
2022-08-24T04:27:53.867Z,15.60
2022-08-24T04:30:24.740Z,15.60
2022-08-24T04:33:06.746Z,15.60
2022-08-24T04:35:39.569Z,15.70
2022-08-24T04:38:08.477Z,15.70
2022-08-24T04:40:40.710Z,15.70
2022-08-24T04:43:10.403Z,15.70
2022-08-24T04:45:41.054Z,15.80
2022-08-24T04:48:10.092Z,15.80
2022-08-24T04:50:40.382Z,15.80
2022-08-24T04:53:09.658Z,15.80
2022-08-24T04:55:46.520Z,15.90
2022-08-24T04:58:16.671Z,15.90
2022-08-24T05:00:45.980Z,15.90
2022-08-24T05:03:15.439Z,15.90
2022-08-24T05:05:46.894Z,16.00
2022-08-24T05:08:15.908Z,16.10
2022-08-24T05:10:47.471Z,16.10
2022-08-24T05:13:16.828Z,16.10
2022-08-24T05:15:47.325Z,16.20
2022-08-24T05:18:17.736Z,16.30
2022-08-24T05:20:48.390Z,16.30
2022-08-24T05:23:19.879Z,16.30
2022-08-24T05:25:50.398Z,16.40
2022-08-24T05:28:19.244Z,16.50
2022-08-24T05:30:47.675Z,16.50
2022-08-24T05:33:19.467Z,16.60
2022-08-24T05:35:47.768Z,16.60
2022-08-24T05:38:16.011Z,16.70
2022-08-24T05:40:44.263Z,16.80
2022-08-24T05:43:15.489Z,16.90
2022-08-24T05:45:44.702Z,17.00
2022-08-24T05:48:13.209Z,17.10
2022-08-24T05:51:15.992Z,17.20
2022-08-24T05:53:53.939Z,17.30
2022-08-24T05:56:26.679Z,17.40
2022-08-24T05:58:59.029Z,17.50
2022-08-24T06:01:28.481Z,17.60
2022-08-24T06:04:00.446Z,17.70
2022-08-24T06:06:29.279Z,17.80
2022-08-24T06:09:00.067Z,17.90
2022-08-24T06:11:31.678Z,18.00
2022-08-24T06:14:07.246Z,18.20
2022-08-24T06:16:41.160Z,18.30
2022-08-24T06:19:11.037Z,18.30
2022-08-24T06:21:39.751Z,18.50
2022-08-24T06:24:08.855Z,18.50
2022-08-24T06:26:54.944Z,18.70
2022-08-24T06:29:24.613Z,18.80
2022-08-24T06:31:57.423Z,19.00
2022-08-24T06:34:27.370Z,19.10
2022-08-24T06:36:55.802Z,19.20
2022-08-24T06:39:27.453Z,19.40
2022-08-24T06:41:58.395Z,19.60
2022-08-24T06:44:35.493Z,19.70
2022-08-24T06:47:19.140Z,19.80
2022-08-24T06:49:50.138Z,19.80
2022-08-24T06:52:18.645Z,19.80
2022-08-24T06:54:47.961Z,19.80
2022-08-24T06:57:16.485Z,19.80
2022-08-24T06:59:46.383Z,19.80
2022-08-24T07:02:16.273Z,19.80
2022-08-24T07:04:45.824Z,19.90
2022-08-24T07:07:40.499Z,19.90
2022-08-24T07:10:10.641Z,20.00
2022-08-24T07:12:39.043Z,20.00
2022-08-24T07:15:16.240Z,20.10
2022-08-24T07:17:49.654Z,20.10
2022-08-24T07:20:18.794Z,20.20
2022-08-24T07:23:10.691Z,20.30
2022-08-24T07:25:39.187Z,20.50
2022-08-24T07:28:11.288Z,20.60
2022-08-24T07:30:43.754Z,20.70
2022-08-24T07:33:14.350Z,20.90
2022-08-24T07:35:42.952Z,21.00
2022-08-24T07:38:13.956Z,21.00
2022-08-24T07:41:05.078Z,21.00
2022-08-24T07:43:31.797Z,21.10
2022-08-24T07:46:01.907Z,21.10
2022-08-24T07:48:31.800Z,21.10
2022-08-24T07:51:07.339Z,21.10
2022-08-24T07:53:52.458Z,21.20
2022-08-24T07:56:29.033Z,21.30
2022-08-24T07:59:00.829Z,21.40
2022-08-24T08:01:31.611Z,21.50
2022-08-24T08:04:00.091Z,21.60
2022-08-24T08:06:28.590Z,21.80
2022-08-24T08:09:02.992Z,21.90
2022-08-24T08:11:32.566Z,22.10
2022-08-24T08:14:00.962Z,22.30
2022-08-24T08:16:31.014Z,22.50
2022-08-24T08:19:14.775Z,22.60
2022-08-24T08:22:03.438Z,22.70
2022-08-24T08:24:38.343Z,22.80
2022-08-24T08:27:07.351Z,22.90
2022-08-24T08:29:40.771Z,23.00
2022-08-24T08:32:14.760Z,23.00
2022-08-24T08:34:43.415Z,23.00
2022-08-24T08:37:12.572Z,22.90
2022-08-24T08:39:41.729Z,22.90
2022-08-24T08:42:49.141Z,23.00
2022-08-24T08:45:33.331Z,23.00
2022-08-24T08:48:58.167Z,23.10
2022-08-24T08:51:53.273Z,23.10
2022-08-24T08:54:31.879Z,23.20
2022-08-24T08:57:23.980Z,23.30
2022-08-24T09:00:22.348Z,23.50
2022-08-24T09:03:27.620Z,23.70
2022-08-24T09:06:35.321Z,23.90
2022-08-24T09:09:20.827Z,24.10
2022-08-24T09:11:59.884Z,24.30
2022-08-24T09:14:56.172Z,24.40
2022-08-24T09:17:41.183Z,24.50
2022-08-24T09:20:30.804Z,24.70
2022-08-24T09:23:10.280Z,24.60
2022-08-24T09:25:47.589Z,24.60
2022-08-24T09:28:35.709Z,24.70
2022-08-24T09:31:25.678Z,24.70
2022-08-24T09:34:07.540Z,24.80
2022-08-24T09:36:55.588Z,24.90
2022-08-24T09:39:38.693Z,25.10
2022-08-24T09:42:39.480Z,25.10
2022-08-24T09:45:26.398Z,25.00
2022-08-24T09:48:22.702Z,25.00
2022-08-24T09:51:07.328Z,24.90
2022-08-24T09:54:12.739Z,24.80
2022-08-24T09:57:12.564Z,24.70
2022-08-24T09:59:55.855Z,24.50
2022-08-24T10:02:42.974Z,24.20
2022-08-24T10:05:25.899Z,24.10
2022-08-24T10:08:03.536Z,24.00
2022-08-24T10:10:43.114Z,23.90
2022-08-24T10:13:21.605Z,23.90
2022-08-24T10:16:04.236Z,23.90
2022-08-24T10:18:52.347Z,23.90
2022-08-24T10:21:30.570Z,24.00
2022-08-24T10:24:21.269Z,24.00
2022-08-24T10:27:05.581Z,24.10
2022-08-24T10:29:49.683Z,24.10
2022-08-24T10:32:35.795Z,24.10
2022-08-24T10:35:05.883Z,24.20
2022-08-24T10:38:13.825Z,24.30
2022-08-24T10:40:47.827Z,24.40
2022-08-24T10:43:46.339Z,24.60
2022-08-24T10:46:37.760Z,24.80
2022-08-24T10:49:57.279Z,24.90
2022-08-24T10:52:50.906Z,25.10
2022-08-24T10:55:23.488Z,25.30
2022-08-24T10:58:11.503Z,25.60
2022-08-24T11:00:40.648Z,25.70
2022-08-24T11:03:15.022Z,25.90
2022-08-24T11:05:46.753Z,26.10
2022-08-24T11:08:22.752Z,26.00
2022-08-24T11:11:04.860Z,26.00
2022-08-24T11:13:33.464Z,26.10
2022-08-24T11:16:04.237Z,26.40
2022-08-24T11:18:49.691Z,26.70
2022-08-24T11:21:34.796Z,26.90
2022-08-24T11:24:04.947Z,27.00
2022-08-24T11:26:46.720Z,26.90
2022-08-24T11:29:23.226Z,26.80
2022-08-24T11:31:53.827Z,26.60
2022-08-24T11:34:34.818Z,26.30
2022-08-24T11:37:03.766Z,25.90
2022-08-24T11:39:35.434Z,25.80
2022-08-24T11:42:15.375Z,25.80
2022-08-24T11:44:50.478Z,25.80
2022-08-24T11:47:38.006Z,26.10
2022-08-24T11:50:20.937Z,26.40
2022-08-24T11:53:01.037Z,26.70
2022-08-24T11:55:47.032Z,26.90
2022-08-24T11:58:20.904Z,27.10
2022-08-24T12:00:56.885Z,27.40
2022-08-24T12:03:42.077Z,27.70
2022-08-24T12:06:20.702Z,27.80
2022-08-24T12:08:57.421Z,28.10
2022-08-24T12:11:38.076Z,28.20
2022-08-24T12:14:10.950Z,28.30
2022-08-24T12:16:49.941Z,28.50
2022-08-24T12:19:23.660Z,28.70
2022-08-24T12:21:57.976Z,28.90
2022-08-24T12:24:32.076Z,29.00
2022-08-24T12:27:05.884Z,29.00
2022-08-24T12:29:39.507Z,29.00
2022-08-24T12:32:11.547Z,28.90
2022-08-24T12:34:50.623Z,28.90
2022-08-24T12:37:27.238Z,28.70
2022-08-24T12:40:02.698Z,28.50
2022-08-24T12:42:39.251Z,28.50
2022-08-24T12:45:11.953Z,28.60
2022-08-24T12:47:48.286Z,28.60
2022-08-24T12:50:26.730Z,28.80
2022-08-24T12:53:22.007Z,28.90
2022-08-24T12:56:14.942Z,28.80
2022-08-24T12:59:03.615Z,28.80
2022-08-24T13:01:35.802Z,28.60
2022-08-24T13:04:13.671Z,28.30
2022-08-24T13:06:47.041Z,28.20
2022-08-24T13:09:28.665Z,28.20
2022-08-24T13:11:58.757Z,28.00
2022-08-24T13:14:30.708Z,27.70
2022-08-24T13:17:12.511Z,27.80
2022-08-24T13:19:46.984Z,28.20
2022-08-24T13:22:39.143Z,28.20
2022-08-24T13:25:42.241Z,28.40
2022-08-24T13:28:27.971Z,28.40
2022-08-24T13:31:21.032Z,28.40
2022-08-24T13:33:51.990Z,28.30
2022-08-24T13:36:49.894Z,28.10
2022-08-24T13:39:47.516Z,27.90
2022-08-24T13:42:31.406Z,28.10
2022-08-24T13:45:21.548Z,28.40
2022-08-24T13:48:04.195Z,28.50
2022-08-24T13:50:41.942Z,28.50
2022-08-24T13:53:41.461Z,28.50
2022-08-24T13:56:32.578Z,28.40
2022-08-24T13:59:11.909Z,28.40
2022-08-24T14:01:59.917Z,28.30
2022-08-24T14:04:44.542Z,28.30
2022-08-24T14:07:20.015Z,28.30
2022-08-24T14:09:56.261Z,28.20
2022-08-24T14:12:52.547Z,28.20
2022-08-24T14:15:33.291Z,28.20
2022-08-24T14:18:12.868Z,28.20
2022-08-24T14:20:58.793Z,28.10
2022-08-24T14:23:35.200Z,28.10
2022-08-24T14:26:22.009Z,28.10
2022-08-24T14:28:51.531Z,28.10
2022-08-24T14:31:28.334Z,28.10
2022-08-24T14:34:10.621Z,28.10
2022-08-24T14:36:47.750Z,28.10
2022-08-24T14:39:32.336Z,28.40
2022-08-24T14:42:15.719Z,28.70
2022-08-24T14:44:54.479Z,29.40
2022-08-24T14:50:12.642Z,31.40
2022-08-24T14:52:54.927Z,31.40
2022-08-24T14:55:32.216Z,31.20
2022-08-24T14:58:29.036Z,31.10
2022-08-24T15:01:11.521Z,30.90
2022-08-24T15:03:58.451Z,30.70
2022-08-24T15:06:33.623Z,31.50
2022-08-24T15:09:11.262Z,32.90
2022-08-24T15:11:42.543Z,34.50
2022-08-24T15:14:22.898Z,35.60
2022-08-24T15:17:01.412Z,36.30
2022-08-24T15:19:38.621Z,36.60
2022-08-24T15:22:11.647Z,36.30
2022-08-24T15:24:48.677Z,35.50
2022-08-24T15:27:27.442Z,33.80
2022-08-24T15:29:58.967Z,33.00
2022-08-24T15:32:45.093Z,32.80
2022-08-24T15:35:27.586Z,32.60
2022-08-24T15:37:56.425Z,32.20
2022-08-24T15:40:29.643Z,31.80
2022-08-24T15:43:03.337Z,31.40
2022-08-24T15:45:32.909Z,31.10
2022-08-24T15:48:04.576Z,30.80
2022-08-24T15:50:43.053Z,30.80
2022-08-24T15:53:29.776Z,31.00
2022-08-24T15:55:58.207Z,31.00
2022-08-24T15:58:33.068Z,30.80
2022-08-24T16:01:37.068Z,30.70
2022-08-24T16:04:08.199Z,30.50
2022-08-24T16:06:42.273Z,30.40
2022-08-24T16:09:15.532Z,30.30
2022-08-24T16:11:46.720Z,30.10
2022-08-24T16:14:25.293Z,30.00
2022-08-24T16:16:57.106Z,30.00
2022-08-24T16:19:29.179Z,30.00
2022-08-24T16:22:01.484Z,29.90
2022-08-24T16:24:36.117Z,29.90
2022-08-24T16:27:08.512Z,29.90
2022-08-24T16:30:21.040Z,30.10
2022-08-24T16:32:55.960Z,30.50
2022-08-24T16:35:26.119Z,30.70
2022-08-24T16:37:55.866Z,30.80
2022-08-24T16:40:24.570Z,31.20
2022-08-24T16:42:55.385Z,31.60
2022-08-24T16:45:24.693Z,31.90
2022-08-24T16:47:52.897Z,32.20
2022-08-24T16:50:22.525Z,32.40
2022-08-24T16:52:57.518Z,32.50
2022-08-24T16:55:28.352Z,32.80
2022-08-24T16:57:57.480Z,32.90
2022-08-24T17:00:25.861Z,32.90
2022-08-24T17:02:55.119Z,32.80
2022-08-24T17:05:23.409Z,32.60
2022-08-24T17:07:52.068Z,32.50
2022-08-24T17:10:23.220Z,32.30
2022-08-24T17:12:52.014Z,32.10
2022-08-24T17:15:20.380Z,32.00
2022-08-24T17:17:56.234Z,31.80
2022-08-24T17:20:24.949Z,31.60
2022-08-24T17:22:53.277Z,31.40
2022-08-24T17:25:23.187Z,31.30
2022-08-24T17:27:52.705Z,31.10
2022-08-24T17:30:23.220Z,30.90
2022-08-24T17:32:51.716Z,30.70
2022-08-24T17:35:21.915Z,30.50
2022-08-24T17:37:52.324Z,30.30
2022-08-24T17:40:25.006Z,30.20
2022-08-24T17:42:53.858Z,30.00
2022-08-24T17:45:23.458Z,29.90
2022-08-24T17:47:52.503Z,29.60
2022-08-24T17:50:21.958Z,29.40
2022-08-24T17:52:56.281Z,29.10
2022-08-24T17:55:36.396Z,28.80
2022-08-24T17:58:04.902Z,28.50
2022-08-24T18:00:33.096Z,28.10
2022-08-24T18:03:01.568Z,27.80
2022-08-24T18:05:32.209Z,27.60
2022-08-24T18:08:02.247Z,27.30
2022-08-24T18:10:32.275Z,26.90
2022-08-24T18:13:03.665Z,26.60
2022-08-24T18:15:36.075Z,26.20
2022-08-24T18:18:08.892Z,25.90
2022-08-24T18:20:39.920Z,25.70
2022-08-24T18:23:11.311Z,25.50
2022-08-24T18:25:44.932Z,25.30
2022-08-24T18:28:16.835Z,25.10
2022-08-24T18:30:46.334Z,24.90
2022-08-24T18:33:15.166Z,24.70
2022-08-24T18:35:43.582Z,24.50
2022-08-24T18:38:11.988Z,24.30
2022-08-24T18:40:52.420Z,24.20
2022-08-24T18:43:24.911Z,24.00
2022-08-24T18:45:54.793Z,23.80
2022-08-24T18:48:23.848Z,23.60
2022-08-24T18:50:53.772Z,23.50
2022-08-24T18:53:24.936Z,23.20
2022-08-24T18:55:53.871Z,23.10
2022-08-24T18:58:23.582Z,22.90
2022-08-24T19:00:52.118Z,22.70
2022-08-24T19:03:23.221Z,22.60
2022-08-24T19:05:51.526Z,22.40
2022-08-24T19:08:19.767Z,22.20
2022-08-24T19:10:48.221Z,22.10
2022-08-24T19:13:18.621Z,21.90
2022-08-24T19:15:51.065Z,21.80
2022-08-24T19:18:21.563Z,21.70
2022-08-24T19:20:52.457Z,21.60
2022-08-24T19:23:23.475Z,21.50
2022-08-24T19:25:52.994Z,21.40
2022-08-24T19:28:21.505Z,21.30
2022-08-24T19:30:54.109Z,21.20
2022-08-24T19:33:26.216Z,21.20
2022-08-24T19:35:54.637Z,21.10
2022-08-24T19:38:25.818Z,21.00
2022-08-24T19:40:55.472Z,20.90
2022-08-24T19:43:26.161Z,20.80
2022-08-24T19:46:07.657Z,20.80
2022-08-24T19:48:38.329Z,20.70
2022-08-24T19:51:09.516Z,20.70
2022-08-24T19:53:39.622Z,20.60
2022-08-24T19:56:08.910Z,20.60
2022-08-24T19:58:44.778Z,20.50
2022-08-24T20:01:18.267Z,20.50
2022-08-24T20:03:46.989Z,20.40
2022-08-24T20:06:16.554Z,20.30
2022-08-24T20:08:48.436Z,20.30
2022-08-24T20:11:17.975Z,20.20
2022-08-24T20:13:47.403Z,20.20
2022-08-24T20:16:21.655Z,20.10
2022-08-24T20:18:50.416Z,20.00
2022-08-24T20:21:19.732Z,20.00
2022-08-24T20:23:48.431Z,19.90
2022-08-24T20:26:16.825Z,19.90
2022-08-24T20:28:47.965Z,19.80
2022-08-24T20:31:17.121Z,19.70
2022-08-24T20:33:47.296Z,19.60
2022-08-24T20:36:24.080Z,19.60
2022-08-24T20:38:53.018Z,19.50
2022-08-24T20:41:21.520Z,19.50
2022-08-24T20:43:50.303Z,19.40
2022-08-24T20:46:18.574Z,19.30
2022-08-24T20:48:55.303Z,19.30
2022-08-24T20:51:24.365Z,19.30
2022-08-24T20:53:53.034Z,19.20
2022-08-24T20:56:28.796Z,19.20
2022-08-24T20:59:00.280Z,19.20
2022-08-24T21:01:28.892Z,19.20
2022-08-24T21:04:04.238Z,19.10
2022-08-24T21:06:34.126Z,19.10
2022-08-24T21:09:02.453Z,19.10
2022-08-24T21:11:32.890Z,19.00
2022-08-24T21:14:01.569Z,19.00
2022-08-24T21:16:30.162Z,19.00
2022-08-24T21:19:00.077Z,19.00
2022-08-24T21:21:28.556Z,19.00
2022-08-24T21:23:56.948Z,19.00
2022-08-24T21:26:28.409Z,19.00
2022-08-24T21:28:58.241Z,19.00
2022-08-24T21:31:27.401Z,18.90
2022-08-24T21:34:13.462Z,18.90
2022-08-24T21:36:43.720Z,18.90
2022-08-24T21:39:12.050Z,18.80
2022-08-24T21:41:40.663Z,18.80
2022-08-24T21:44:09.138Z,18.80
2022-08-24T21:46:40.452Z,18.70
2022-08-24T21:49:12.317Z,18.70
2022-08-24T21:51:42.253Z,18.70
2022-08-24T21:54:11.162Z,18.60
2022-08-24T21:56:39.407Z,18.70
2022-08-24T21:59:08.037Z,18.60
2022-08-24T22:01:37.513Z,18.60
2022-08-24T22:04:06.364Z,18.60
2022-08-24T22:06:34.701Z,18.50
2022-08-24T22:09:07.789Z,18.50
2022-08-24T22:11:37.191Z,18.40
2022-08-24T22:14:05.747Z,18.40
2022-08-24T22:16:37.028Z,18.30
2022-08-24T22:19:06.319Z,18.30
2022-08-24T22:21:36.219Z,18.30
2022-08-24T22:24:06.820Z,18.30
2022-08-24T22:26:37.024Z,18.20
2022-08-24T22:29:06.504Z,18.20
2022-08-24T22:31:37.258Z,18.20
2022-08-24T22:34:12.703Z,18.10
2022-08-24T22:36:48.411Z,18.10
2022-08-24T22:39:18.029Z,18.10
2022-08-24T22:41:46.328Z,18.10
2022-08-24T22:44:20.245Z,18.10
2022-08-24T22:46:50.207Z,18.00
2022-08-24T22:49:20.250Z,18.00
2022-08-24T22:51:49.580Z,18.00
2022-08-24T22:54:20.339Z,18.00
2022-08-24T22:56:51.735Z,18.00
2022-08-24T22:59:22.628Z,18.00
2022-08-24T23:01:53.236Z,17.90
2022-08-24T23:04:24.818Z,17.90
2022-08-24T23:06:54.902Z,17.80
2022-08-24T23:09:25.040Z,17.80
2022-08-24T23:11:54.053Z,17.70
2022-08-24T23:14:23.873Z,17.70
2022-08-24T23:16:53.096Z,17.60
2022-08-24T23:19:42.082Z,17.60
2022-08-24T23:22:14.097Z,17.60
2022-08-24T23:24:44.794Z,17.60
2022-08-24T23:27:15.036Z,17.50
2022-08-24T23:29:44.529Z,17.50
2022-08-24T23:32:13.138Z,17.40
2022-08-24T23:34:46.375Z,17.30
2022-08-24T23:37:15.570Z,17.30
2022-08-24T23:39:45.755Z,17.30
2022-08-24T23:42:14.249Z,17.30
2022-08-24T23:44:42.489Z,17.30
2022-08-24T23:47:11.011Z,17.20
2022-08-24T23:49:41.827Z,17.20
2022-08-24T23:52:25.883Z,17.10
2022-08-24T23:55:19.983Z,17.10
2022-08-24T23:57:47.520Z,17.10
